Time;durP1;ratioP1;P1;durP2;ratioP2;P2;SDS_P1;SDS_P2;PMS_P1;PMS_P2;Temp;Humidity;BMP_temperature;BMP_pressure;BME280_temperature;BME280_humidity;BME280_pressure;Samples;Min_cycle;Max_cycle;Signal;HPM_P1;HPM_P2
2022/09/07 00:00:08;;;;;;;2.92;2.00;;;10.60;64.00;;;;;;5094651;28;20024;-73
2022/09/07 00:02:34;;;;;;;3.80;1.65;;;10.50;64.20;;;;;;5094698;28;20053;-73
2022/09/07 00:04:59;;;;;;;2.30;1.63;;;10.50;64.30;;;;;;5094414;28;20408;-73
2022/09/07 00:07:25;;;;;;;2.00;1.80;;;10.50;64.60;;;;;;5094619;28;20027;-82
2022/09/07 00:09:51;;;;;;;1.70;1.60;;;10.40;64.70;;;;;;5095801;28;20039;-82
2022/09/07 00:12:16;;;;;;;3.15;1.80;;;10.40;65.00;;;;;;5095778;28;20393;-82
2022/09/07 00:14:42;;;;;;;5.20;2.20;;;10.40;65.10;;;;;;5095632;28;20056;-82
2022/09/07 00:17:07;;;;;;;3.92;1.90;;;10.40;65.50;;;;;;5095727;28;20024;-81
2022/09/07 00:19:33;;;;;;;2.13;1.60;;;10.30;66.70;;;;;;5095710;28;20025;-82
2022/09/07 00:21:59;;;;;;;2.42;1.90;;;10.30;66.10;;;;;;5095350;28;20430;-75
2022/09/07 00:24:24;;;;;;;2.45;2.17;;;10.30;66.20;;;;;;5095674;28;20101;-83
2022/09/07 00:26:54;;;;;;;2.88;1.80;;;10.30;66.20;;;;;;5095624;28;20020;-82
2022/09/07 00:29:19;;;;;;;2.53;1.80;;;10.30;66.40;;;;;;5095624;28;20504;-82
2022/09/07 00:31:45;;;;;;;3.17;1.95;;;10.30;66.40;;;;;;5095380;28;20025;-75
2022/09/07 00:34:11;;;;;;;3.20;1.83;;;10.30;66.40;;;;;;5095337;28;20024;-74
2022/09/07 00:36:36;;;;;;;4.57;1.85;;;10.30;66.60;;;;;;5093917;28;20026;-74
2022/09/07 00:39:02;;;;;;;2.80;1.73;;;10.30;66.60;;;;;;5093992;28;20059;-73
2022/09/07 00:41:28;;;;;;;2.10;1.90;;;10.20;66.60;;;;;;5093935;28;20020;-82
2022/09/07 00:43:56;;;;;;;3.05;1.80;;;10.20;66.70;;;;;;5095191;28;20036;-82
2022/09/07 00:46:28;;;;;;;5.55;2.08;;;10.20;67.00;;;;;;5094954;28;20020;-73
2022/09/07 00:49:07;;;;;;;3.97;1.90;;;10.20;67.20;;;;;;5095099;28;20032;-82
2022/09/07 00:51:32;;;;;;;7.30;2.80;;;10.20;67.30;;;;;;5095060;28;20023;-73
2022/09/07 00:54:07;;;;;;;5.22;2.10;;;10.10;67.50;;;;;;5094875;28;20497;-73
2022/09/07 00:56:37;;;;;;;3.42;2.10;;;10.10;67.80;;;;;;5110635;28;20013;-73
2022/09/07 00:59:03;;;;;;;1.92;1.67;;;10.10;67.90;;;;;;5110529;28;20020;-84
2022/09/07 01:01:33;;;;;;;3.20;1.90;;;10.10;68.00;;;;;;5095089;28;20028;-82
2022/09/07 01:04:00;;;;;;;6.03;2.00;;;10.10;68.30;;;;;;5093401;28;20052;-73
2022/09/07 01:06:33;;;;;;;2.50;1.98;;;10.00;68.30;;;;;;5093859;28;20016;-73
2022/09/07 01:09:03;;;;;;;2.40;2.20;;;10.00;68.40;;;;;;5093484;28;20111;-73
2022/09/07 01:11:32;;;;;;;4.43;1.90;;;10.00;68.60;;;;;;5093356;28;20434;-81
2022/09/07 01:13:58;;;;;;;3.78;2.22;;;10.00;68.60;;;;;;5093343;28;20020;-73
2022/09/07 01:17:04;;;;;;;3.25;1.95;;;10.00;68.70;;;;;;5094443;28;20035;-82
2022/09/07 01:20:03;;;;;;;3.42;2.10;;;9.90;69.70;;;;;;5054528;28;20039;-73
2022/09/07 01:22:56;;;;;;;2.65;2.25;;;9.90;69.10;;;;;;5094440;28;20085;-81
2022/09/07 01:25:34;;;;;;;2.83;2.03;;;9.80;69.60;;;;;;5094450;28;20445;-73
2022/09/07 01:28:15;;;;;;;3.03;1.90;;;9.80;69.90;;;;;;5093069;28;20035;-73
2022/09/07 01:30:49;;;;;;;4.05;2.20;;;9.70;70.40;;;;;;5093009;28;20378;-72
2022/09/07 01:33:50;;;;;;;4.30;2.30;;;9.70;70.50;;;;;;5094247;28;20478;-73
2022/09/07 01:36:23;;;;;;;3.30;1.85;;;9.60;71.20;;;;;;5094238;28;20020;-82
2022/09/07 01:38:49;;;;;;;;;;;9.60;71.50;;;;;;5094638;28;20061;-82
2022/09/07 01:41:39;;;;;;;4.28;1.85;;;9.50;72.10;;;;;;5092799;28;19904;-81
2022/09/07 01:44:21;;;;;;;3.47;2.10;;;9.50;72.50;;;;;;5094162;28;20043;-73
2022/09/07 01:46:49;;;;;;;6.30;2.78;;;9.40;72.80;;;;;;5094092;28;20016;-73
2022/09/07 01:49:27;;;;;;;3.28;2.17;;;9.30;73.20;;;;;;5092756;28;20024;-73
2022/09/07 01:52:02;;;;;;;5.95;2.67;;;9.30;73.50;;;;;;5092536;28;20082;-82
2022/09/07 01:54:59;;;;;;;3.55;2.13;;;9.30;73.70;;;;;;5109565;28;20020;-82
2022/09/07 01:57:37;;;;;;;4.90;2.65;;;9.30;73.90;;;;;;5077679;28;20043;-83
2022/09/07 02:00:09;;;;;;;4.78;2.10;;;9.30;74.00;;;;;;5093923;28;20100;-82
2022/09/07 02:02:46;;;;;;;4.38;2.67;;;9.30;74.00;;;;;;5093597;28;20036;-73
2022/09/07 02:05:22;;;;;;;5.03;2.50;;;9.30;74.10;;;;;;5093899;28;20094;-73
2022/09/07 02:07:55;;;;;;;2.90;2.38;;;9.30;74.10;;;;;;5093693;28;20016;-73
2022/09/07 02:10:31;;;;;;;;;;;9.30;73.90;;;;;;5093963;28;20016;-82
2022/09/07 02:13:14;;;;;;;6.80;2.22;;;9.30;73.80;;;;;;5092464;28;19927;-82
2022/09/07 02:15:43;;;;;;;3.47;3.15;;;9.30;74.50;;;;;;5093640;28;20013;-82
2022/09/07 02:18:12;;;;;;;6.55;3.17;;;9.30;74.00;;;;;;5092157;28;20111;-73
2022/09/07 02:20:42;;;;;;;4.72;2.75;;;9.30;74.40;;;;;;5093473;28;20020;-80
2022/09/07 02:23:14;;;;;;;7.13;3.35;;;9.30;74.30;;;;;;5092089;28;20024;-80
2022/09/07 02:25:44;;;;;;;4.97;2.53;;;9.20;74.30;;;;;;5093839;28;20031;-81
2022/09/07 02:28:17;;;;;;;6.43;2.85;;;9.30;74.40;;;;;;5093769;28;20028;-73
2022/09/07 02:30:43;;;;;;;7.20;3.00;;;9.30;74.30;;;;;;5092213;28;20469;-73
2022/09/07 02:33:09;;;;;;;4.63;2.95;;;9.20;74.40;;;;;;5093232;28;20026;-80
2022/09/07 02:35:35;;;;;;;4.65;2.83;;;9.20;74.40;;;;;;5109052;28;20070;-81
2022/09/07 02:38:04;;;;;;;4.97;2.53;;;9.20;74.50;;;;;;5091949;28;20016;-73
2022/09/07 02:40:29;;;;;;;4.38;2.67;;;9.20;74.70;;;;;;5093294;28;20036;-73
2022/09/07 02:42:58;;;;;;;3.58;2.88;;;9.20;74.90;;;;;;5091795;28;20606;-81
2022/09/07 02:45:24;;;;;;;4.63;2.85;;;9.20;75.20;;;;;;5091892;28;20055;-81
2022/09/07 02:47:55;;;;;;;4.85;2.80;;;9.10;75.80;;;;;;5093190;28;20446;-80
2022/09/07 02:50:40;;;;;;;5.20;2.83;;;9.10;76.10;;;;;;5093168;28;20397;-82
2022/09/07 02:53:21;;;;;;;6.72;3.20;;;9.00;76.30;;;;;;5093042;28;20020;-73
2022/09/07 02:56:08;;;;;;;6.30;3.00;;;9.00;76.20;;;;;;5091843;28;20031;-73
2022/09/07 02:58:52;;;;;;;6.45;3.20;;;9.00;76.20;;;;;;5093095;28;20486;-81
2022/09/07 03:01:23;;;;;;;5.22;3.35;;;9.10;76.40;;;;;;5093021;28;20024;-81
2022/09/07 03:04:01;;;;;;;4.18;2.85;;;9.00;76.70;;;;;;5092758;28;20387;-73
2022/09/07 03:06:44;;;;;;;7.25;3.30;;;9.00;76.90;;;;;;5092678;28;20016;-73
2022/09/07 03:09:16;;;;;;;6.65;3.47;;;8.90;77.50;;;;;;5092018;28;20085;-81
2022/09/07 03:11:42;;;;;;;5.00;2.88;;;8.90;77.60;;;;;;5091824;28;20051;-80
2022/09/07 03:14:14;;;;;;;4.55;2.95;;;8.90;77.60;;;;;;5092918;28;20043;-81
2022/09/07 03:16:40;;;;;;;5.03;2.75;;;8.90;78.70;;;;;;5091595;28;20114;-73
2022/09/07 03:19:06;;;;;;;5.47;3.17;;;8.90;78.10;;;;;;5091491;28;20139;-73
2022/09/07 03:21:31;;;;;;;5.95;3.33;;;8.90;77.90;;;;;;5092834;28;20025;-82
2022/09/07 03:23:57;;;;;;;4.28;2.75;;;8.80;78.20;;;;;;5092554;28;20036;-82
2022/09/07 03:26:24;;;;;;;5.18;3.45;;;8.80;78.10;;;;;;5091633;28;20110;-81
2022/09/07 03:28:50;;;;;;;3.97;2.83;;;8.80;78.70;;;;;;5091465;28;20032;-73
2022/09/07 03:31:16;;;;;;;4.97;3.30;;;8.70;79.20;;;;;;5111832;28;20070;-82
2022/09/07 03:33:41;;;;;;;7.05;3.35;;;8.70;80.00;;;;;;5095324;28;20020;-82
2022/09/07 03:36:07;;;;;;;5.05;3.10;;;8.70;80.40;;;;;;5095351;28;20016;-74
2022/09/07 03:38:33;;;;;;;7.88;4.03;;;8.60;80.70;;;;;;5096442;28;20077;-73
2022/09/07 03:41:00;;;;;;;4.28;3.17;;;8.60;81.00;;;;;;5096517;28;20069;-79
2022/09/07 03:43:27;;;;;;;4.15;3.17;;;8.60;81.10;;;;;;5096239;28;20375;-73
2022/09/07 03:46:01;;;;;;;7.20;3.28;;;8.60;81.50;;;;;;5095144;28;20039;-81
2022/09/07 03:48:29;;;;;;;6.30;3.58;;;8.50;81.90;;;;;;5096269;28;20048;-81
2022/09/07 03:50:59;;;;;;;7.47;3.67;;;8.50;82.30;;;;;;5095287;28;20016;-73
2022/09/07 03:53:25;;;;;;;5.05;3.10;;;8.50;82.40;;;;;;5094592;28;20017;-81
2022/09/07 03:55:59;;;;;;;7.18;3.70;;;8.50;82.80;;;;;;5096204;28;20032;-82
2022/09/07 03:58:24;;;;;;;6.75;3.13;;;8.50;82.80;;;;;;5095960;28;20028;-73
2022/09/07 04:00:50;;;;;;;4.55;3.40;;;8.40;82.70;;;;;;5095999;28;20024;-82
2022/09/07 04:03:16;;;;;;;6.15;3.50;;;8.50;83.00;;;;;;5094385;28;20062;-73
2022/09/07 04:05:41;;;;;;;6.43;3.03;;;8.50;82.70;;;;;;5094665;28;20024;-81
2022/09/07 04:08:07;;;;;;;4.70;3.13;;;8.50;82.70;;;;;;5095964;28;20052;-73
2022/09/07 04:10:37;;;;;;;4.95;2.88;;;8.50;82.50;;;;;;5094516;28;20486;-81
2022/09/07 04:13:03;;;;;;;7.75;3.85;;;8.50;82.70;;;;;;5095966;28;20023;-73
2022/09/07 04:15:28;;;;;;;5.95;3.45;;;8.50;82.60;;;;;;5107602;28;20542;-81
2022/09/07 04:17:54;;;;;;;7.63;3.53;;;8.60;83.40;;;;;;5094371;28;20119;-81
2022/09/07 04:20:20;;;;;;;11.02;3.78;;;8.60;82.70;;;;;;5094239;28;20020;-73
2022/09/07 04:22:49;;;;;;;3.85;3.45;;;8.50;83.10;;;;;;5095582;28;20481;-74
2022/09/07 04:25:15;;;;;;;8.82;3.47;;;8.50;83.10;;;;;;5095473;28;20103;-82
2022/09/07 04:27:41;;;;;;;6.55;3.72;;;8.50;83.30;;;;;;5095554;28;20424;-81
2022/09/07 04:30:08;;;;;;;6.82;4.00;;;8.60;83.40;;;;;;5095317;28;20024;-81
2022/09/07 04:32:33;;;;;;;5.10;3.40;;;8.50;83.10;;;;;;5095606;28;20028;-73
2022/09/07 04:34:59;;;;;;;6.72;3.85;;;8.60;82.60;;;;;;5094023;28;20093;-73
2022/09/07 04:37:25;;;;;;;4.65;3.25;;;8.60;82.30;;;;;;5095432;28;20027;-81
2022/09/07 04:39:50;;;;;;;6.15;4.45;;;8.70;81.90;;;;;;5110943;28;20027;-73
2022/09/07 04:42:16;;;;;;;5.68;3.30;;;8.80;82.00;;;;;;5094095;28;20085;-81
2022/09/07 04:44:42;;;;;;;6.65;3.80;;;8.80;81.70;;;;;;5095287;28;20139;-74
2022/09/07 04:47:08;;;;;;;6.95;3.72;;;8.80;82.10;;;;;;5095082;28;20028;-81
2022/09/07 04:49:34;;;;;;;6.50;3.40;;;8.90;81.30;;;;;;5095054;28;20031;-73
2022/09/07 04:51:59;;;;;;;10.05;4.20;;;8.90;81.30;;;;;;5095118;28;20032;-73
2022/09/07 04:54:25;;;;;;;10.07;3.83;;;8.90;81.00;;;;;;5094829;28;20095;-82
2022/09/07 04:56:51;;;;;;;6.45;3.85;;;9.00;80.70;;;;;;5093589;28;20081;-74
2022/09/07 04:59:17;;;;;;;7.60;4.00;;;9.00;80.20;;;;;;5094818;28;20056;-83
2022/09/07 05:01:42;;;;;;;6.53;3.85;;;9.10;80.30;;;;;;5094758;28;20024;-81
2022/09/07 05:04:08;;;;;;;5.20;3.38;;;9.20;80.00;;;;;;5093401;28;20123;-82
2022/09/07 05:06:33;;;;;;;6.97;3.75;;;9.20;79.80;;;;;;5090001;28;20024;-81
2022/09/07 05:08:59;;;;;;;7.50;4.45;;;9.30;80.00;;;;;;5084773;28;20028;-82
2022/09/07 05:11:26;;;;;;;11.98;3.95;;;9.30;80.00;;;;;;5083179;28;20016;-81
2022/09/07 05:13:51;;;;;;;9.40;4.43;;;9.40;79.20;;;;;;5091176;28;20024;-82
2022/09/07 05:16:24;;;;;;;7.53;3.72;;;9.40;79.40;;;;;;5092506;28;20048;-83
2022/09/07 05:18:55;;;;;;;9.40;4.53;;;9.50;78.60;;;;;;5090921;28;20058;-82
2022/09/07 05:21:24;;;;;;;9.35;4.82;;;9.60;78.60;;;;;;5085042;28;20058;-83
2022/09/07 05:23:52;;;;;;;7.68;3.90;;;9.70;78.60;;;;;;5092647;28;20036;-83
2022/09/07 05:26:20;;;;;;;9.00;4.30;;;9.80;78.20;;;;;;5085924;28;20093;-83
2022/09/07 05:28:46;;;;;;;8.98;4.53;;;9.80;77.80;;;;;;5084861;28;20013;-83
2022/09/07 05:31:14;;;;;;;8.60;4.55;;;9.90;77.70;;;;;;5069573;28;20041;-82
2022/09/07 05:33:45;;;;;;;8.00;4.50;;;10.10;77.60;;;;;;5081966;28;20020;-82
2022/09/07 05:36:10;;;;;;;9.55;5.43;;;10.20;77.00;;;;;;5091513;28;20097;-82
2022/09/07 05:38:36;;;;;;;9.02;4.60;;;10.30;76.10;;;;;;5093214;28;20024;-83
2022/09/07 05:41:16;;;;;;;9.73;4.85;;;10.40;76.40;;;;;;5090725;28;20020;-82
2022/09/07 05:43:42;;;;;;;8.70;4.07;;;10.50;75.60;;;;;;5080357;28;20081;-74
2022/09/07 05:46:09;;;;;;;10.18;4.65;;;10.60;75.60;;;;;;5080024;28;20020;-81
2022/09/07 05:48:35;;;;;;;7.65;4.75;;;10.60;74.70;;;;;;5091754;28;20028;-82
2022/09/07 05:51:00;;;;;;;8.18;4.47;;;10.70;75.00;;;;;;5092577;28;20023;-81
2022/09/07 05:53:26;;;;;;;7.20;4.57;;;10.80;75.00;;;;;;5091648;28;20028;-82
2022/09/07 05:55:52;;;;;;;9.85;5.03;;;10.90;74.20;;;;;;5086180;28;20016;-82
2022/09/07 05:58:17;;;;;;;8.57;5.30;;;11.10;73.40;;;;;;5072171;28;20055;-75
2022/09/07 06:00:44;;;;;;;11.18;5.38;;;11.20;73.00;;;;;;5078599;28;20050;-82
2022/09/07 06:03:10;;;;;;;8.70;4.93;;;11.30;73.10;;;;;;5089150;28;20050;-81
2022/09/07 06:05:36;;;;;;;10.27;5.07;;;11.40;72.70;;;;;;5093170;28;20051;-82
2022/09/07 06:08:02;;;;;;;10.07;5.65;;;11.50;72.30;;;;;;5086547;28;20023;-74
2022/09/07 06:10:32;;;;;;;9.30;4.18;;;11.70;71.30;;;;;;5075603;28;20029;-82
2022/09/07 06:12:58;;;;;;;9.85;4.88;;;11.80;70.80;;;;;;5073126;28;20078;-82
2022/09/07 06:15:23;;;;;;;9.82;5.10;;;11.90;70.30;;;;;;5082405;28;20419;-82
2022/09/07 06:17:49;;;;;;;8.52;5.35;;;12.00;70.10;;;;;;5082334;28;20057;-81
2022/09/07 06:20:15;;;;;;;8.23;4.53;;;12.10;70.30;;;;;;5080692;28;20048;-82
2022/09/07 06:22:40;;;;;;;10.07;5.20;;;12.30;69.90;;;;;;5081423;28;20040;-81
2022/09/07 06:25:06;;;;;;;9.27;4.93;;;12.40;69.90;;;;;;5082910;28;20050;-81
2022/09/07 06:27:32;;;;;;;11.13;5.05;;;12.50;68.90;;;;;;5078846;28;20033;-80
2022/09/07 06:29:57;;;;;;;9.70;5.07;;;12.60;69.10;;;;;;5080567;28;20023;-82
2022/09/07 06:32:23;;;;;;;11.23;5.43;;;12.80;69.20;;;;;;5081990;28;20046;-82
2022/09/07 06:34:49;;;;;;;9.77;5.05;;;12.90;68.30;;;;;;5078425;28;20016;-82
2022/09/07 06:37:15;;;;;;;12.40;5.20;;;12.90;68.10;;;;;;5073446;28;20497;-75
2022/09/07 06:39:41;;;;;;;6.85;4.45;;;13.10;68.70;;;;;;5071725;28;20093;-75
2022/09/07 06:42:06;;;;;;;8.48;5.38;;;13.30;68.10;;;;;;5072755;28;20545;-81
2022/09/07 06:44:32;;;;;;;10.73;5.72;;;13.40;67.70;;;;;;5080917;28;20052;-81
2022/09/07 06:46:58;;;;;;;9.45;4.95;;;13.40;67.70;;;;;;5079213;28;20012;-82
2022/09/07 06:49:24;;;;;;;10.50;5.07;;;13.60;67.90;;;;;;5079488;28;20020;-81
2022/09/07 06:51:50;;;;;;;9.65;5.93;;;13.70;67.60;;;;;;5080107;28;20173;-81
2022/09/07 06:54:16;;;;;;;11.13;5.20;;;13.90;67.40;;;;;;5083883;28;20518;-82
2022/09/07 06:56:41;;;;;;;7.28;4.75;;;14.10;67.20;;;;;;5080120;28;20019;-81
2022/09/07 06:59:07;;;;;;;13.68;5.47;;;14.20;66.00;;;;;;5080985;28;20024;-81
2022/09/07 07:01:33;;;;;;;7.55;4.60;;;14.30;66.60;;;;;;5081633;28;20017;-81
2022/09/07 07:04:00;;;;;;;8.60;4.47;;;14.40;66.40;;;;;;5079131;28;20043;-82
2022/09/07 07:06:52;;;;;;;10.40;5.35;;;14.60;66.80;;;;;;5075096;28;20120;-82
2022/09/07 07:09:17;;;;;;;9.00;4.68;;;14.70;65.50;;;;;;5074570;28;20482;-75
2022/09/07 07:11:46;;;;;;;8.52;5.13;;;14.90;65.70;;;;;;5076286;28;20036;-75
2022/09/07 07:14:15;;;;;;;11.93;5.43;;;15.00;65.50;;;;;;5083276;28;20012;-75
2022/09/07 07:16:41;;;;;;;10.25;5.43;;;15.20;65.30;;;;;;5112413;28;20449;-75
2022/09/07 07:19:07;;;;;;;7.25;5.22;;;15.30;64.40;;;;;;5096940;28;20074;-82
2022/09/07 07:21:33;;;;;;;11.82;5.20;;;15.40;64.20;;;;;;5095251;28;20055;-75
2022/09/07 07:23:58;;;;;;;11.57;4.90;;;15.50;64.70;;;;;;5096499;28;20551;-76
2022/09/07 07:26:27;;;;;;;8.52;4.38;;;15.70;63.60;;;;;;5096246;28;20024;-81
2022/09/07 07:28:55;;;;;;;15.15;5.57;;;15.80;63.30;;;;;;5093074;28;20024;-76
2022/09/07 07:31:24;;;;;;;8.13;4.60;;;15.90;63.20;;;;;;5094009;28;20094;-76
2022/09/07 07:33:51;;;;;;;6.97;4.65;;;16.10;63.20;;;;;;5094921;28;20028;-82
2022/09/07 07:36:24;;;;;;;10.27;4.75;;;16.30;62.80;;;;;;5078040;28;20027;-76
2022/09/07 07:38:51;;;;;;;9.20;4.75;;;16.50;62.10;;;;;;5074883;28;20062;-76
2022/09/07 07:41:19;;;;;;;8.32;5.00;;;16.70;62.00;;;;;;5076212;28;20382;-83
2022/09/07 07:43:45;;;;;;;8.75;5.45;;;16.70;61.40;;;;;;5075988;28;20162;-83
2022/09/07 07:46:16;;;;;;;10.32;5.65;;;16.80;60.80;;;;;;5074964;28;20021;-82
2022/09/07 07:48:42;;;;;;;8.10;4.85;;;16.90;61.40;;;;;;5075993;28;20461;-76
2022/09/07 07:51:10;;;;;;;7.63;5.32;;;17.10;61.10;;;;;;5074901;28;20051;-83
2022/09/07 07:53:37;;;;;;;8.88;4.40;;;17.20;60.50;;;;;;5083928;28;20390;-83
2022/09/07 07:56:04;;;;;;;7.80;4.53;;;17.40;60.00;;;;;;5094861;28;20020;-83
2022/09/07 07:58:32;;;;;;;12.38;5.43;;;17.60;59.80;;;;;;5096251;28;20114;-76
2022/09/07 08:01:11;;;;;;;8.70;4.95;;;17.70;59.70;;;;;;5096139;28;20032;-83
2022/09/07 08:03:39;;;;;;;7.90;4.40;;;17.90;59.50;;;;;;5095663;28;20129;-76
2022/09/07 08:06:14;;;;;;;9.27;4.93;;;18.00;58.90;;;;;;5096037;28;20024;-76
2022/09/07 08:08:40;;;;;;;6.15;4.15;;;18.10;57.90;;;;;;5095886;28;20020;-83
2022/09/07 08:11:17;;;;;;;8.15;3.90;;;18.30;57.30;;;;;;5096016;28;20012;-76
2022/09/07 08:13:45;;;;;;;7.90;4.68;;;18.40;56.10;;;;;;5094403;28;20024;-76
2022/09/07 08:16:12;;;;;;;8.07;4.35;;;18.60;56.40;;;;;;5095618;28;20382;-83
2022/09/07 08:18:38;;;;;;;7.78;4.90;;;18.50;55.50;;;;;;5094333;28;20031;-84
2022/09/07 08:21:07;;;;;;;8.07;4.88;;;18.60;55.50;;;;;;5094706;28;20032;-77
2022/09/07 08:23:33;;;;;;;7.88;4.47;;;18.80;55.20;;;;;;5095314;28;20028;-76
2022/09/07 08:25:59;;;;;;;6.45;3.80;;;18.80;54.30;;;;;;5095652;28;20019;-84
2022/09/07 08:28:27;;;;;;;9.32;4.55;;;18.90;53.90;;;;;;5094150;28;20028;-84
2022/09/07 08:30:54;;;;;;;5.50;3.70;;;19.00;53.60;;;;;;5095543;28;20052;-77
2022/09/07 08:33:19;;;;;;;6.38;3.50;;;19.10;53.10;;;;;;5095509;28;20115;-78
2022/09/07 08:36:00;;;;;;;5.40;3.20;;;19.10;53.00;;;;;;5095382;28;20062;-77
2022/09/07 08:38:27;;;;;;;6.22;3.70;;;19.30;53.30;;;;;;5095286;28;20382;-84
2022/09/07 08:40:53;;;;;;;7.22;3.88;;;19.40;52.70;;;;;;5095353;28;20024;-77
2022/09/07 08:43:28;;;;;;;7.18;3.00;;;19.50;52.00;;;;;;5095089;28;20394;-83
2022/09/07 08:46:00;;;;;;;7.47;3.53;;;19.60;51.70;;;;;;5094063;28;20021;-84
2022/09/07 08:48:31;;;;;;;16.20;3.47;;;19.60;51.50;;;;;;5093660;28;20385;-84
2022/09/07 08:51:15;;;;;;;4.25;3.08;;;19.70;51.70;;;;;;5093639;28;20465;-85
2022/09/07 08:53:45;;;;;;;4.50;3.20;;;19.60;50.60;;;;;;5110681;28;20028;-86
2022/09/07 08:56:27;;;;;;;4.63;2.78;;;19.70;51.00;;;;;;5094471;28;20085;-76
2022/09/07 08:58:53;;;;;;;7.10;2.47;;;19.70;51.00;;;;;;5093785;28;20020;-77
2022/09/07 09:01:45;;;;;;;4.88;2.53;;;19.70;50.60;;;;;;5093765;28;20027;-78
2022/09/07 09:04:24;;;;;;;2.97;2.38;;;19.70;50.90;;;;;;5094242;28;20063;-86
2022/09/07 09:06:59;;;;;;;4.88;2.50;;;19.80;50.70;;;;;;5092888;28;20076;-86
2022/09/07 09:09:39;;;;;;;5.00;2.90;;;19.80;50.60;;;;;;5091362;28;20024;-86
2022/09/07 09:12:39;;;;;;;6.18;3.15;;;19.90;50.40;;;;;;5092083;28;20016;-86
2022/09/07 09:15:25;;;;;;;5.75;2.30;;;20.00;50.30;;;;;;5073016;28;20089;-77
2022/09/07 09:17:53;;;;;;;3.53;2.78;;;20.00;50.00;;;;;;5094724;28;20401;-77
2022/09/07 09:20:31;;;;;;;3.33;2.90;;;20.10;50.40;;;;;;5093288;28;20020;-84
2022/09/07 09:23:01;;;;;;;4.60;2.42;;;20.10;50.70;;;;;;5093177;28;20045;-77
2022/09/07 09:25:35;;;;;;;3.80;2.88;;;20.20;50.60;;;;;;5094400;28;20032;-77
2022/09/07 09:28:02;;;;;;;7.18;3.45;;;20.20;50.20;;;;;;5093930;28;20012;-86
2022/09/07 09:30:28;;;;;;;3.55;3.17;;;20.20;49.70;;;;;;5094392;28;20397;-77
2022/09/07 09:33:12;;;;;;;5.00;3.17;;;20.30;49.90;;;;;;5093025;28;20477;-85
2022/09/07 09:35:39;;;;;;;4.70;3.00;;;20.30;49.60;;;;;;5092915;28;20024;-84
2022/09/07 09:38:04;;;;;;;5.00;2.92;;;20.40;50.10;;;;;;5093024;28;20028;-85
2022/09/07 09:40:32;;;;;;;7.90;3.30;;;20.60;51.10;;;;;;5092695;28;20034;-76
2022/09/07 09:43:20;;;;;;;5.00;3.78;;;20.60;49.40;;;;;;5093976;28;20402;-76
2022/09/07 09:45:48;;;;;;;3.63;3.20;;;20.80;49.90;;;;;;5093960;28;20024;-77
2022/09/07 09:48:36;;;;;;;5.05;2.80;;;21.00;49.70;;;;;;5093173;28;20016;-85
2022/09/07 09:51:04;;;;;;;6.72;3.40;;;21.10;49.70;;;;;;5092707;28;20026;-86
2022/09/07 09:53:34;;;;;;;4.90;2.75;;;21.10;49.00;;;;;;5092621;28;20089;-76
2022/09/07 09:56:01;;;;;;;3.33;2.72;;;21.10;48.60;;;;;;5094089;28;20103;-77
2022/09/07 09:58:33;;;;;;;6.35;3.33;;;21.10;48.90;;;;;;5092556;28;20066;-84
2022/09/07 10:01:05;;;;;;;5.53;3.40;;;21.00;48.60;;;;;;5093666;28;20065;-76
2022/09/07 10:03:33;;;;;;;4.00;2.78;;;21.00;49.00;;;;;;5093468;28;20127;-77
2022/09/07 10:06:03;;;;;;;4.47;3.10;;;21.20;49.50;;;;;;5109428;28;20084;-77
2022/09/07 10:08:31;;;;;;;7.05;3.33;;;21.20;48.80;;;;;;5093672;28;20020;-76
2022/09/07 10:10:58;;;;;;;5.47;3.80;;;21.20;48.70;;;;;;5092373;28;20066;-86
2022/09/07 10:13:35;;;;;;;4.82;3.15;;;21.10;48.80;;;;;;5092167;28;20104;-77
2022/09/07 10:16:04;;;;;;;4.75;2.97;;;21.20;48.50;;;;;;5092125;28;20020;-77
2022/09/07 10:18:39;;;;;;;6.35;3.28;;;21.30;48.50;;;;;;5093414;28;20031;-86
2022/09/07 10:21:16;;;;;;;6.40;3.90;;;21.40;48.50;;;;;;5092200;28;20024;-77
2022/09/07 10:23:42;;;;;;;8.50;3.83;;;21.40;48.50;;;;;;5093410;28;20489;-87
2022/09/07 10:26:28;;;;;;;4.78;3.13;;;21.40;48.90;;;;;;5082391;28;20048;-77
2022/09/07 10:29:22;;;;;;;5.85;3.70;;;21.30;48.10;;;;;;5090558;28;20020;-76
2022/09/07 10:32:06;;;;;;;4.95;3.95;;;21.30;48.90;;;;;;5094094;28;20444;-77
2022/09/07 10:34:50;;;;;;;8.48;4.13;;;21.40;48.70;;;;;;5092427;28;20032;-77
2022/09/07 10:37:32;;;;;;;5.05;3.50;;;21.30;48.30;;;;;;5091068;28;20035;-77
2022/09/07 10:40:20;;;;;;;7.35;3.95;;;21.40;48.30;;;;;;5089395;28;20012;-86
2022/09/07 10:43:01;;;;;;;6.05;3.53;;;21.30;47.70;;;;;;5090667;28;20111;-88
2022/09/07 10:45:56;;;;;;;6.57;3.97;;;21.40;48.40;;;;;;5089966;28;20036;-88
2022/09/07 10:48:40;;;;;;;9.38;3.90;;;21.30;48.20;;;;;;5083257;28;20032;-87
2022/09/07 10:51:13;;;;;;;6.20;3.63;;;21.40;48.80;;;;;;5090327;28;20055;-88
2022/09/07 10:53:51;;;;;;;4.47;3.58;;;21.40;48.20;;;;;;5090918;28;20069;-87
2022/09/07 10:56:26;;;;;;;4.57;3.72;;;21.50;48.50;;;;;;5080233;28;20029;-87
2022/09/07 10:58:57;;;;;;;5.45;3.58;;;21.60;48.50;;;;;;5089219;28;21560;-87
2022/09/07 11:01:29;;;;;;;6.50;3.67;;;21.50;48.20;;;;;;5090529;28;20093;-77
2022/09/07 11:04:25;;;;;;;7.63;3.95;;;21.70;48.10;;;;;;5090453;28;20052;-77
2022/09/07 11:07:04;;;;;;;7.72;3.90;;;21.80;48.00;;;;;;5091712;28;20447;-77
2022/09/07 11:09:50;;;;;;;6.20;4.55;;;21.80;47.30;;;;;;5092253;28;20557;-87
2022/09/07 11:12:18;;;;;;;4.93;4.00;;;21.80;47.90;;;;;;5107505;28;20543;-87
2022/09/07 11:15:13;;;;;;;9.43;4.32;;;21.80;47.90;;;;;;5086455;28;20466;-86
2022/09/07 11:17:51;;;;;;;6.88;4.47;;;21.90;47.50;;;;;;5090584;28;20024;-76
2022/09/07 11:20:38;;;;;;;7.68;3.85;;;22.10;47.80;;;;;;5092195;28;20359;-77
2022/09/07 11:23:15;;;;;;;4.60;3.78;;;22.00;46.50;;;;;;5107328;28;20115;-77
2022/09/07 11:26:10;;;;;;;7.00;3.70;;;22.00;47.80;;;;;;5090295;28;20143;-78
2022/09/07 11:29:00;;;;;;;6.85;3.90;;;22.00;47.20;;;;;;5085960;28;20101;-77
2022/09/07 11:31:31;;;;;;;12.23;4.38;;;22.20;47.50;;;;;;5084004;28;20462;-77
2022/09/07 11:34:10;;;;;;;5.28;4.10;;;22.30;47.40;;;;;;5080902;28;20028;-78
2022/09/07 11:36:45;;;;;;;7.18;3.88;;;22.30;46.70;;;;;;5083456;28;20478;-77
2022/09/07 11:39:19;;;;;;;5.97;3.70;;;22.50;47.30;;;;;;5080337;28;20487;-78
2022/09/07 11:42:13;;;;;;;5.50;3.47;;;22.80;47.20;;;;;;5085610;28;20038;-78
2022/09/07 11:44:51;;;;;;;6.78;4.22;;;22.80;46.80;;;;;;5082873;28;20027;-77
2022/09/07 11:47:42;;;;;;;5.20;3.92;;;22.70;46.20;;;;;;5086669;28;20405;-77
2022/09/07 11:50:21;;;;;;;6.00;3.65;;;22.60;47.20;;;;;;5081530;28;20024;-89
2022/09/07 11:53:12;;;;;;;6.20;3.90;;;22.60;46.90;;;;;;5094973;28;20075;-87
2022/09/07 11:55:42;;;;;;;5.55;3.53;;;22.60;46.00;;;;;;5095176;28;20024;-88
2022/09/07 11:58:19;;;;;;;7.97;4.45;;;22.50;46.60;;;;;;5093023;28;20031;-77
2022/09/07 12:01:06;;;;;;;5.93;3.92;;;22.60;46.20;;;;;;5095144;28;20020;-78
2022/09/07 12:03:52;;;;;;;4.28;3.67;;;22.70;47.40;;;;;;5090961;28;20053;-77
2022/09/07 12:06:39;;;;;;;4.95;3.95;;;22.70;47.00;;;;;;5109585;28;20067;-87
2022/09/07 12:09:33;;;;;;;7.45;4.38;;;22.70;46.80;;;;;;5081192;28;20032;-87
2022/09/07 12:12:20;;;;;;;5.00;4.30;;;22.80;47.90;;;;;;5092964;28;20089;-87
2022/09/07 12:15:00;;;;;;;7.35;3.92;;;22.60;46.30;;;;;;5093839;28;20017;-87
2022/09/07 12:17:53;;;;;;;6.10;4.00;;;22.70;46.00;;;;;;5093348;28;20185;-87
2022/09/07 12:20:43;;;;;;;5.78;3.25;;;22.70;46.00;;;;;;5080417;28;20474;-88
2022/09/07 12:23:15;;;;;;;4.32;3.92;;;22.80;47.10;;;;;;5092983;28;20035;-86
2022/09/07 12:25:42;;;;;;;6.47;3.83;;;22.80;46.30;;;;;;5094631;28;20107;-78
2022/09/07 12:28:16;;;;;;;4.95;4.00;;;22.90;47.10;;;;;;5092211;28;20040;-78
2022/09/07 12:30:57;;;;;;;4.55;3.70;;;22.80;46.80;;;;;;5093298;28;20020;-89
2022/09/07 12:33:29;;;;;;;6.90;4.03;;;23.00;47.10;;;;;;5080888;28;20044;-88
2022/09/07 12:35:57;;;;;;;4.90;3.67;;;23.00;46.70;;;;;;5092886;28;20095;-88
2022/09/07 12:38:29;;;;;;;6.10;3.85;;;23.00;46.80;;;;;;5093022;28;20032;-89
2022/09/07 12:41:00;;;;;;;6.70;4.03;;;23.00;47.20;;;;;;5094026;28;20020;-86
2022/09/07 12:43:47;;;;;;;4.72;3.40;;;23.00;46.80;;;;;;5093914;28;20073;-78
2022/09/07 12:46:31;;;;;;;9.77;3.80;;;23.00;46.80;;;;;;5095504;28;20097;-89
2022/09/07 12:49:04;;;;;;;6.03;3.90;;;23.00;46.00;;;;;;5095018;28;20032;-78
2022/09/07 12:51:36;;;;;;;5.13;3.38;;;23.10;46.10;;;;;;5095383;28;20017;-89
2022/09/07 12:54:26;;;;;;;5.82;4.43;;;23.20;46.50;;;;;;5094936;28;20039;-78
2022/09/07 12:57:29;;;;;;;6.07;4.03;;;23.20;46.40;;;;;;5095108;28;20032;-87
2022/09/07 13:00:26;;;;;;;9.10;3.92;;;23.30;46.10;;;;;;5093648;28;20474;-78
2022/09/07 13:02:54;;;;;;;11.68;3.83;;;23.40;46.10;;;;;;5087658;28;20122;-88
2022/09/07 13:05:31;;;;;;;4.65;3.55;;;23.30;45.70;;;;;;5091252;28;20071;-79
2022/09/07 13:08:15;;;;;;;8.88;3.92;;;23.30;46.10;;;;;;5087431;28;20066;-78
2022/09/07 13:10:42;;;;;;;6.07;4.13;;;23.40;46.50;;;;;;5091510;28;20486;-87
2022/09/07 13:13:14;;;;;;;8.40;4.30;;;23.30;46.20;;;;;;5092984;28;20131;-88
2022/09/07 13:15:39;;;;;;;5.90;3.88;;;23.40;46.70;;;;;;5090918;28;20071;-77